Portada
METAR-TAF:

METAR-TAF

Aeroports :

Saga, Japó

latitud: 33-09N, longitud: 130-18E, altitud: 2 m

Observació

L'informe es va fer fa 1 hora i 14 minuts, a les 22:00 UTC
Vent 5 kt del Nord-Oest
Temperatura 14°C
Humitat 94%
Pressió 1013 hPa
Visibilitat 10 km o més
Escasses núvols a una alçada de 2000 ft
Núvols disperses a una alçada de 15000 ft
Cel ennuvolat

METAR: RJFS 212200Z 32005KT 9999 FEW020 SCT150 BKN/// 14/13 Q1013

Hora: 08:14 (23:14 UTC)

Pronòstic

L'informe es va fer fa 6 hores i 7 minuts, a les 17:07 UTC
Pronòstic vàlid del 21 a les 18 UTC al 23 a les 00 UTC
Vent 6 kt del Nord
Visibilitat 10 km o més
Escasses núvols a una alçada de 3000 ft
Evolucionant progressivament
l' 21 a les 20 UTC al 21 a les 22 UTC
Vent 9 kt del Nord/Nord-Est

TAF: RJFS 211707Z 2118/2300 36006KT 9999 FEW030 BECMG 2120/2122 03009KT

Observacions i pronòstics meteorològics de més de 4000 aeroports (METAR i TAF).

Les estacions disponibles són els punts grocs i vermells al mapa.

Posi el ratolí al punt desitjat per veure el nom de l'estació.

Feu clic per veure les observacions i els pronòstics meteorològics.

Per canviar el mapa: feu clic els botons verds amb una creu de color negre per apropar; al botó verd amb un guió per allunyar la imatge; o en les fletxes verdes per a mapes adjacents.


METAR-TAF: